Time;durP1;ratioP1;P1;durP2;ratioP2;P2;SDS_P1;SDS_P2;PMS_P1;PMS_P2;Temp;Humidity;BMP_temperature;BMP_pressure;BME280_temperature;BME280_humidity;BME280_pressure;Samples;Min_cycle;Max_cycle;Signal;HPM_P1;HPM_P2
2023/04/21 00:00:18;;;;;;;55.95;29.63;;;;;;;15.58;49.08;93045.09;4918670;29;20331;-90
2023/04/21 00:02:45;;;;;;;49.85;29.50;;;;;;;15.55;49.03;93039.84;4926715;29;20043;-90
2023/04/21 00:05:12;;;;;;;49.42;27.98;;;;;;;15.55;49.38;93045.31;4926539;28;20039;-90
2023/04/21 00:07:40;;;;;;;51.10;28.42;;;;;;;15.60;49.08;93041.81;4938529;28;20127;-91
2023/04/21 00:10:07;;;;;;;48.35;28.30;;;;;;;15.55;49.08;93032.44;4928964;28;20059;-90
2023/04/21 00:12:33;;;;;;;50.10;26.73;;;;;;;15.63;49.03;93033.41;4932158;29;20048;-90
2023/04/21 00:14:58;;;;;;;48.50;27.73;;;;;;;15.59;48.73;93032.19;4924776;29;20048;-90
2023/04/21 00:17:24;;;;;;;45.50;25.27;;;;;;;15.67;48.89;93025.72;4921859;29;20793;-91
2023/04/21 00:19:50;;;;;;;39.20;25.75;;;;;;;15.65;49.19;93019.28;4928805;29;20571;-90
2023/04/21 00:22:16;;;;;;;49.63;27.30;;;;;;;15.58;48.74;93017.84;4934788;28;20118;-90
2023/04/21 00:24:41;;;;;;;46.60;25.38;;;;;;;15.67;49.02;93016.78;4927933;29;20039;-90
2023/04/21 00:27:07;;;;;;;51.08;26.63;;;;;;;15.60;48.90;93018.03;4922694;28;20031;-90
2023/04/21 00:29:32;;;;;;;48.05;26.85;;;;;;;15.58;48.95;93019.81;4951269;28;20102;-90
2023/04/21 00:31:58;;;;;;;48.53;27.70;;;;;;;15.56;48.65;93017.59;4922880;29;20036;-90
2023/04/21 00:34:24;;;;;;;44.67;25.48;;;;;;;15.56;48.97;93012.16;4919440;29;20119;-90
2023/04/21 00:36:49;;;;;;;42.95;26.05;;;;;;;15.65;48.80;93011.84;4944240;28;20131;-90
2023/04/21 00:39:15;;;;;;;43.10;24.88;;;;;;;15.64;49.00;93010.34;4938186;28;20032;-91
2023/04/21 00:41:40;;;;;;;41.13;25.67;;;;;;;15.63;48.73;93010.84;4939158;28;20044;-90
2023/04/21 00:44:07;;;;;;;44.30;27.00;;;;;;;15.58;48.91;93003.47;4918333;28;20051;-90
2023/04/21 00:46:32;;;;;;;44.58;25.27;;;;;;;15.58;48.84;93004.22;4918816;29;20407;-90
2023/04/21 00:48:58;;;;;;;39.67;24.45;;;;;;;15.63;49.01;93006.16;4927888;29;20605;-92
2023/04/21 00:51:25;;;;;;;43.28;24.77;;;;;;;15.59;48.40;93002.22;4939599;28;20047;-90
2023/04/21 00:53:50;;;;;;;45.88;25.35;;;;;;;15.61;48.60;92995.00;4922163;29;20043;-92
2023/04/21 00:56:17;;;;;;;42.47;24.98;;;;;;;15.57;48.90;92994.56;4919306;29;20435;-91
2023/04/21 00:58:42;;;;;;;39.83;24.55;;;;;;;15.58;48.48;93000.75;4918952;29;20761;-90
2023/04/21 01:01:07;;;;;;;47.25;26.08;;;;;;;15.55;48.87;93004.44;4943932;28;20058;-90
2023/04/21 01:03:33;;;;;;;47.50;25.38;;;;;;;15.55;48.83;92994.28;4918133;29;20068;-90
2023/04/21 01:05:59;;;;;;;40.25;24.67;;;;;;;15.59;48.90;93008.38;4930734;29;20114;-90
2023/04/21 01:08:25;;;;;;;39.95;24.40;;;;;;;15.59;48.60;93013.84;4917582;28;20515;-91
2023/04/21 01:10:51;;;;;;;39.25;24.30;;;;;;;15.60;48.81;93009.88;4922857;29;20050;-91
2023/04/21 01:13:19;;;;;;;45.55;24.25;;;;;;;15.58;49.22;93003.47;4926814;29;20035;-91
2023/04/21 01:15:45;;;;;;;40.72;23.92;;;;;;;15.57;48.59;92991.84;4925452;29;20093;-89
2023/04/21 01:18:10;;;;;;;41.47;23.63;;;;;;;15.54;49.04;92998.25;4916041;29;20039;-90
2023/04/21 01:20:36;;;;;;;43.22;24.50;;;;;;;15.57;49.22;92993.81;4947160;28;20043;-90
2023/04/21 01:23:02;;;;;;;41.00;25.10;;;;;;;15.55;48.92;92988.84;4916123;29;20148;-91
2023/04/21 01:25:28;;;;;;;38.03;22.65;;;;;;;15.53;49.05;92977.69;4916258;29;20040;-90
2023/04/21 01:27:53;;;;;;;39.65;22.42;;;;;;;15.52;48.82;92981.66;4928157;29;20055;-90
2023/04/21 01:30:18;;;;;;;43.15;23.83;;;;;;;15.53;49.19;92977.69;4955752;28;20042;-90
2023/04/21 01:32:44;;;;;;;43.33;23.70;;;;;;;15.50;49.08;92977.97;4933924;29;20039;-90
2023/04/21 01:35:09;;;;;;;42.00;24.70;;;;;;;15.53;48.88;92979.69;4936484;28;20050;-92
2023/04/21 01:37:35;;;;;;;41.55;23.60;;;;;;;15.53;49.05;92985.88;4921365;29;20064;-92
2023/04/21 01:40:04;;;;;;;37.22;22.58;;;;;;;15.51;48.92;92985.63;4944825;29;20047;-90
2023/04/21 01:42:29;;;;;;;34.47;22.67;;;;;;;15.51;48.69;92985.63;4910032;29;20036;-91
2023/04/21 01:44:55;;;;;;;39.10;23.35;;;;;;;15.54;48.71;92990.06;4923366;29;20040;-91
2023/04/21 01:47:21;;;;;;;40.55;22.83;;;;;;;15.48;49.21;92988.63;4931228;29;20052;-91
2023/04/21 01:49:47;;;;;;;41.03;23.08;;;;;;;15.50;48.93;92991.56;4925365;29;20059;-91
2023/04/21 01:52:12;;;;;;;40.05;22.88;;;;;;;15.52;48.85;92989.09;4935790;29;20058;-92
2023/04/21 01:54:38;;;;;;;34.20;23.35;;;;;;;15.51;48.96;92990.34;4932906;29;20039;-90
2023/04/21 01:57:03;;;;;;;34.90;22.05;;;;;;;15.52;49.08;92995.28;4933705;28;20048;-90
2023/04/21 01:59:28;;;;;;;35.13;22.38;;;;;;;15.50;48.87;93003.22;4923610;28;20097;-91
2023/04/21 02:01:54;;;;;;;34.88;20.77;;;;;;;15.54;48.86;93000.22;4921435;29;20048;-90
2023/04/21 02:04:19;;;;;;;36.03;21.60;;;;;;;15.51;48.89;93004.69;4946688;28;20039;-91
2023/04/21 02:06:45;;;;;;;35.83;21.17;;;;;;;15.47;48.97;93001.50;4931886;29;20043;-91
2023/04/21 02:09:10;;;;;;;38.30;22.98;;;;;;;15.47;49.12;93000.75;4925668;29;20040;-90
2023/04/21 02:11:36;;;;;;;35.95;22.13;;;;;;;15.57;48.68;92993.81;4913005;29;20075;-90
2023/04/21 02:14:02;;;;;;;36.67;21.73;;;;;;;15.50;48.65;92995.03;4907030;29;20044;-90
2023/04/21 02:16:28;;;;;;;34.40;21.15;;;;;;;15.48;48.83;92991.34;4943099;28;20048;-90
2023/04/21 02:18:55;;;;;;;34.15;20.25;;;;;;;15.55;48.72;93001.72;4926179;29;20438;-91
2023/04/21 02:21:21;;;;;;;37.20;21.95;;;;;;;15.52;48.52;93005.44;4936875;29;20127;-91
2023/04/21 02:23:46;;;;;;;33.50;21.85;;;;;;;15.47;48.86;92995.31;4912670;29;20044;-91
2023/04/21 02:26:12;;;;;;;34.38;20.45;;;;;;;15.52;48.64;93002.72;4941539;28;20107;-91
2023/04/21 02:28:37;;;;;;;31.67;21.00;;;;;;;15.49;49.24;93001.72;4901905;29;20035;-90
2023/04/21 02:31:02;;;;;;;32.08;19.20;;;;;;;15.55;48.86;93001.72;4932390;28;20179;-89
2023/04/21 02:33:28;;;;;;;34.10;21.92;;;;;;;15.47;48.97;92995.31;4940244;29;20035;-90
2023/04/21 02:35:54;;;;;;;31.17;18.98;;;;;;;15.48;48.94;92999.50;4943340;28;20043;-88
2023/04/21 02:38:19;;;;;;;33.13;20.25;;;;;;;15.46;48.97;93007.44;4900291;29;20576;-92
2023/04/21 02:40:45;;;;;;;30.42;19.67;;;;;;;15.46;48.95;92996.53;4910902;29;20388;-90
2023/04/21 02:43:11;;;;;;;37.75;21.45;;;;;;;15.45;49.20;92990.34;4888411;28;20094;-92
2023/04/21 02:45:37;;;;;;;32.90;20.23;;;;;;;15.46;49.13;92996.53;4890175;29;20082;-90
2023/04/21 02:48:02;;;;;;;36.47;20.83;;;;;;;15.48;49.02;93002.97;4904857;29;20109;-91
2023/04/21 02:50:28;;;;;;;34.20;20.77;;;;;;;15.43;48.95;93001.00;4898067;29;20063;-90
2023/04/21 02:52:53;;;;;;;32.30;19.15;;;;;;;15.55;48.67;92999.72;4905181;29;20122;-91
2023/04/21 02:55:19;;;;;;;33.58;19.58;;;;;;;15.50;48.81;92995.03;4906316;29;20158;-90
2023/04/21 02:57:44;;;;;;;32.33;19.30;;;;;;;15.50;48.70;92992.31;4893869;29;20039;-91
2023/04/21 03:00:11;;;;;;;29.67;18.20;;;;;;;15.53;48.84;92988.59;4888951;29;20223;-90
2023/04/21 03:02:37;;;;;;;32.70;19.67;;;;;;;15.47;48.90;92995.31;4927787;29;20055;-90
2023/04/21 03:05:03;;;;;;;30.65;18.92;;;;;;;15.48;48.69;92980.44;4887006;28;20043;-90
2023/04/21 03:07:28;;;;;;;33.00;19.83;;;;;;;15.45;48.97;92993.06;4913430;29;20178;-91
2023/04/21 03:09:54;;;;;;;30.83;19.95;;;;;;;15.51;48.79;92993.06;4897547;29;20874;-90
2023/04/21 03:12:19;;;;;;;33.28;18.88;;;;;;;15.46;48.83;92996.53;4914455;29;20140;-89
2023/04/21 03:14:45;;;;;;;32.25;19.58;;;;;;;15.45;48.94;92995.81;4917454;29;20040;-90
2023/04/21 03:17:10;;;;;;;33.33;20.58;;;;;;;15.47;48.77;92993.31;4902022;29;20044;-90
2023/04/21 03:19:36;;;;;;;29.95;17.35;;;;;;;15.51;48.68;92988.34;4893647;29;20066;-90
2023/04/21 03:22:01;;;;;;;34.72;19.80;;;;;;;15.45;48.92;93001.25;4900819;29;20040;-91
2023/04/21 03:24:27;;;;;;;27.05;17.58;;;;;;;15.49;49.16;93004.47;4914070;29;20035;-89
2023/04/21 03:26:52;;;;;;;31.55;20.20;;;;;;;15.42;49.15;93004.97;4906786;29;20238;-91
2023/04/21 03:29:18;;;;;;;30.83;19.60;;;;;;;15.45;48.87;92995.81;4898051;29;20040;-92
2023/04/21 03:31:43;;;;;;;30.27;18.15;;;;;;;15.52;48.83;93000.00;4909828;29;20043;-90
2023/04/21 03:34:09;;;;;;;29.70;18.45;;;;;;;15.53;48.59;93004.19;4923924;29;20046;-90
2023/04/21 03:36:34;;;;;;;33.17;18.73;;;;;;;15.48;48.99;93002.22;4900506;29;20048;-90
2023/04/21 03:39:00;;;;;;;31.30;17.80;;;;;;;15.49;48.91;93006.44;4912381;29;20036;-92
2023/04/21 03:41:25;;;;;;;30.83;18.95;;;;;;;15.46;48.99;92991.84;4918776;29;20043;-91
2023/04/21 03:43:51;;;;;;;30.25;19.55;;;;;;;15.46;48.89;92999.25;4930475;29;20040;-89
2023/04/21 03:46:20;;;;;;;32.00;18.75;;;;;;;15.50;48.76;93003.22;4926833;29;20055;-90
2023/04/21 03:48:46;;;;;;;28.42;17.83;;;;;;;15.46;48.93;93002.00;4902621;29;20044;-90
2023/04/21 03:51:12;;;;;;;29.58;18.50;;;;;;;15.46;48.76;93002.00;4910715;29;20044;-91
2023/04/21 03:53:37;;;;;;;30.17;18.52;;;;;;;15.51;49.06;93001.97;4872820;29;20407;-89
2023/04/21 03:56:03;;;;;;;30.05;18.00;;;;;;;15.53;48.89;93006.91;4866351;29;20217;-90
2023/04/21 03:58:28;;;;;;;30.35;19.27;;;;;;;15.51;48.68;93001.97;4877968;29;20049;-93
2023/04/21 04:00:53;;;;;;;28.88;17.63;;;;;;;15.43;48.94;93006.44;4876336;29;20044;-91
2023/04/21 04:03:19;;;;;;;29.17;18.25;;;;;;;15.42;48.56;93000.25;4893954;29;20041;-90
2023/04/21 04:05:44;;;;;;;29.95;16.27;;;;;;;15.42;48.55;93002.25;4876282;29;20115;-91
2023/04/21 04:08:10;;;;;;;27.15;16.63;;;;;;;15.40;48.71;93002.75;4877101;29;20060;-90
2023/04/21 04:10:35;;;;;;;40.83;25.13;;;;;;;15.40;48.93;93007.44;4895335;29;20089;-91
2023/04/21 04:13:02;;;;;;;26.48;16.85;;;;;;;15.36;48.92;93005.00;4881760;29;20469;-91
2023/04/21 04:15:27;;;;;;;33.50;17.77;;;;;;;15.41;48.96;93004.22;4883091;29;20103;-91
2023/04/21 04:17:53;;;;;;;32.45;19.23;;;;;;;15.38;48.97;93007.94;4893390;29;20103;-90
2023/04/21 04:20:19;;;;;;;28.85;16.70;;;;;;;15.37;48.76;93003.75;4880722;29;20040;-92
2023/04/21 04:22:45;;;;;;;33.35;20.73;;;;;;;15.48;49.33;93011.16;4923065;29;20046;-91
2023/04/21 04:25:11;;;;;;;36.55;19.92;;;;;;;15.56;48.86;93017.59;4916268;28;20044;-90
2023/04/21 04:27:43;;;;;;;33.75;20.25;;;;;;;15.66;48.91;93016.03;4912720;29;20051;-89
2023/04/21 04:30:09;;;;;;;35.28;21.02;;;;;;;15.65;48.56;93016.53;4919407;28;20036;-91
2023/04/21 04:32:36;;;;;;;33.03;19.65;;;;;;;15.53;48.71;93006.91;4933620;29;20040;-91
2023/04/21 04:35:03;;;;;;;41.13;22.17;;;;;;;15.62;48.81;93001.94;4915176;29;20055;-90
2023/04/21 04:37:28;;;;;;;39.75;20.80;;;;;;;15.61;48.70;93007.88;4909712;29;20044;-90
2023/04/21 04:39:54;;;;;;;34.72;20.67;;;;;;;15.65;48.69;93009.13;4913159;29;20039;-90
2023/04/21 04:42:19;;;;;;;62.00;33.33;;;;;;;15.62;48.40;93010.13;4912775;29;20046;-90
2023/04/21 04:44:45;;;;;;;32.05;18.88;;;;;;;15.54;48.74;93008.41;4913705;29;20042;-90
2023/04/21 04:47:11;;;;;;;35.78;20.83;;;;;;;15.62;48.58;93007.38;4898442;29;20061;-89
2023/04/21 04:49:37;;;;;;;38.25;21.85;;;;;;;15.64;48.64;93015.81;4913918;29;20495;-91
2023/04/21 04:52:02;;;;;;;31.10;19.40;;;;;;;15.57;48.95;93018.34;4896880;29;20049;-90
2023/04/21 04:54:28;;;;;;;35.15;19.98;;;;;;;15.59;48.71;93015.84;4911364;29;20043;-90
2023/04/21 04:56:54;;;;;;;40.10;20.48;;;;;;;15.78;48.75;93003.13;4903041;29;20056;-90
2023/04/21 04:59:20;;;;;;;34.75;20.65;;;;;;;15.69;48.47;93004.16;4911922;29;20091;-89
2023/04/21 05:01:45;;;;;;;36.67;20.38;;;;;;;15.70;48.67;93016.53;4897483;29;20468;-90
2023/04/21 05:04:15;;;;;;;138.30;32.42;;;;;;;15.65;48.45;93020.00;4914351;29;20047;-90
2023/04/21 05:06:40;;;;;;;195.70;41.92;;;;;;;15.76;48.43;93019.97;4911761;29;20039;-89
2023/04/21 05:09:07;;;;;;;35.75;20.08;;;;;;;15.69;48.29;93015.03;4910850;29;20057;-90
2023/04/21 05:11:32;;;;;;;35.08;19.10;;;;;;;15.73;48.41;93023.72;4889726;29;20060;-89
2023/04/21 05:13:57;;;;;;;27.35;16.23;;;;;;;15.71;48.13;93017.28;4913240;29;20043;-90
2023/04/21 05:16:23;;;;;;;26.50;16.77;;;;;;;15.74;48.11;93027.16;4916385;28;20123;-89
2023/04/21 05:18:54;;;;;;;322.52;58.08;;;;;;;15.82;48.58;93024.63;4919147;29;20035;-90
2023/04/21 05:21:26;;;;;;;52.00;20.25;;;;;;;15.81;48.62;93021.19;4903957;28;20043;-90
2023/04/21 05:23:55;;;;;;;30.60;16.02;;;;;;;15.85;48.44;93024.38;4906030;29;20044;-90
2023/04/21 05:26:21;;;;;;;28.10;16.27;;;;;;;15.91;48.30;93027.09;4896233;29;20037;-90
2023/04/21 05:28:46;;;;;;;26.27;14.80;;;;;;;15.84;48.30;93025.63;4898520;29;20047;-90
2023/04/21 05:31:12;;;;;;;25.33;14.75;;;;;;;15.80;47.96;93033.34;4899058;29;20133;-90
2023/04/21 05:33:37;;;;;;;24.35;13.80;;;;;;;15.81;48.34;93032.06;4911220;29;20293;-90
2023/04/21 05:36:07;;;;;;;23.15;14.10;;;;;;;15.90;48.30;93028.31;4901224;28;20033;-89
2023/04/21 05:38:34;;;;;;;37.93;14.87;;;;;;;15.91;48.03;93027.81;4929212;29;20099;-89
2023/04/21 05:41:02;;;;;;;45.53;16.50;;;;;;;15.88;48.14;93039.00;4936452;29;20067;-91
2023/04/21 05:43:27;;;;;;;32.92;14.38;;;;;;;15.92;48.33;93034.03;4903281;29;20127;-89
2023/04/21 05:45:53;;;;;;;22.35;12.88;;;;;;;15.94;48.22;93032.28;4890002;29;20040;-89
2023/04/21 05:48:18;;;;;;;29.17;13.32;;;;;;;15.90;48.00;93039.97;4917171;29;20036;-88
2023/04/21 05:50:44;;;;;;;23.63;11.98;;;;;;;15.97;48.03;93039.44;4878326;29;20113;-89
2023/04/21 05:53:09;;;;;;;21.67;11.88;;;;;;;16.04;48.10;93033.44;4912934;29;20044;-90
2023/04/21 05:55:35;;;;;;;30.08;15.65;;;;;;;16.00;47.76;93040.44;4882462;29;20090;-89
2023/04/21 05:58:00;;;;;;;27.05;12.75;;;;;;;16.08;47.78;93041.38;4875346;29;20040;-88
2023/04/21 06:00:26;;;;;;;32.72;17.13;;;;;;;16.09;47.44;93034.66;4909395;29;20203;-89
2023/04/21 06:02:51;;;;;;;39.83;17.25;;;;;;;16.09;47.24;93040.13;4898958;29;20055;-90
2023/04/21 06:05:17;;;;;;;17.73;10.98;;;;;;;16.18;47.52;93033.63;4899626;29;20075;-90
2023/04/21 06:07:42;;;;;;;17.27;9.52;;;;;;;16.21;47.41;93032.63;4906606;29;20047;-89
2023/04/21 06:10:10;;;;;;;16.08;8.32;;;;;;;16.25;47.17;93035.81;4883342;29;20147;-88
2023/04/21 06:12:35;;;;;;;16.15;9.75;;;;;;;16.20;47.28;93039.31;4891566;29;20052;-89
2023/04/21 06:15:01;;;;;;;32.55;10.88;;;;;;;16.25;47.32;93041.25;4876449;29;20044;-90
2023/04/21 06:17:26;;;;;;;18.15;9.18;;;;;;;16.23;47.21;93041.03;4865172;29;20044;-89
2023/04/21 06:19:54;;;;;;;245.43;89.70;;;;;;;16.29;47.28;93030.81;4885287;29;20044;-91
2023/04/21 06:22:23;;;;;;;23.67;15.40;;;;;;;16.28;47.26;93030.09;4873379;29;20087;-90
2023/04/21 06:24:48;;;;;;;21.38;12.93;;;;;;;16.30;47.03;93027.59;4880041;29;20055;-92
2023/04/21 06:27:14;;;;;;;23.67;13.50;;;;;;;16.18;47.49;93030.91;4888900;29;20040;-92
2023/04/21 06:29:42;;;;;;;18.15;11.43;;;;;;;16.22;47.61;93036.84;4902975;29;20059;-87
2023/04/21 06:32:08;;;;;;;18.40;10.85;;;;;;;16.25;47.37;93036.53;4898810;29;20054;-91
2023/04/21 06:34:35;;;;;;;18.80;9.82;;;;;;;16.30;47.42;93029.56;4867715;29;20056;-88
2023/04/21 06:37:00;;;;;;;22.85;10.63;;;;;;;16.25;47.45;93039.28;4894203;29;20055;-89
2023/04/21 06:39:26;;;;;;;18.33;9.88;;;;;;;16.26;47.70;93037.28;4900156;29;20048;-91
2023/04/21 06:41:51;;;;;;;14.77;9.88;;;;;;;16.25;47.51;93033.81;4884516;29;20041;-91
2023/04/21 06:44:17;;;;;;;20.30;11.48;;;;;;;16.26;47.76;93038.03;4896436;29;20075;-93
2023/04/21 06:46:42;;;;;;;16.02;10.80;;;;;;;16.28;48.04;93035.53;4893962;29;20049;-91
2023/04/21 06:49:08;;;;;;;21.08;11.35;;;;;;;16.27;48.04;93036.03;4891461;29;20665;-91
2023/04/21 06:51:38;;;;;;;21.30;11.45;;;;;;;16.25;47.64;93031.09;4885091;29;20123;-92
2023/04/21 06:54:05;;;;;;;16.50;9.70;;;;;;;16.26;48.07;93035.31;4891628;29;20605;-93
2023/04/21 06:56:35;;;;;;;15.27;10.00;;;;;;;16.26;47.84;93029.84;4911894;29;20396;-92
2023/04/21 06:59:01;;;;;;;16.67;9.60;;;;;;;16.23;47.74;93030.88;4925686;29;20143;-92
2023/04/21 07:01:27;;;;;;;20.30;10.63;;;;;;;16.25;47.80;93033.06;4882274;29;20067;-92
2023/04/21 07:03:54;;;;;;;18.83;10.88;;;;;;;16.24;48.16;93021.44;4905281;29;20151;-92
2023/04/21 07:06:22;;;;;;;18.45;11.55;;;;;;;16.27;47.98;93031.31;4893400;29;20055;-93
2023/04/21 07:08:50;;;;;;;13.95;8.90;;;;;;;16.21;47.46;93038.81;4895345;29;20099;-92
2023/04/21 07:11:16;;;;;;;16.80;10.90;;;;;;;16.32;48.00;93029.81;4884666;29;20074;-93
2023/04/21 07:13:44;;;;;;;15.48;10.63;;;;;;;16.27;47.85;93034.06;4898532;29;20470;-92
2023/04/21 07:16:10;;;;;;;18.35;11.80;;;;;;;16.31;48.03;93036.50;4899538;29;20569;-92
2023/04/21 07:18:57;;;;;;;17.08;11.25;;;;;;;16.32;47.87;93035.28;4892978;29;20040;-93
2023/04/21 07:21:30;;;;;;;17.30;10.70;;;;;;;16.27;48.08;93033.31;4883059;29;20536;-94
2023/04/21 07:23:57;;;;;;;14.52;10.30;;;;;;;16.32;47.82;93038.75;4915014;29;20035;-92
2023/04/21 07:26:24;;;;;;;17.60;10.55;;;;;;;16.33;48.00;93032.03;4888321;29;20106;-93
2023/04/21 07:28:51;;;;;;;15.10;9.93;;;;;;;16.29;48.11;93033.56;4908086;29;20044;-93
2023/04/21 07:31:17;;;;;;;18.80;10.80;;;;;;;16.39;47.56;93037.47;4908168;29;20044;-91
2023/04/21 07:33:46;;;;;;;14.85;9.68;;;;;;;16.38;47.77;93033.25;4910934;29;20052;-92
2023/04/21 07:36:13;;;;;;;13.73;9.82;;;;;;;16.36;48.11;93035.75;4834668;29;20857;-93
2023/04/21 07:38:45;;;;;;;14.13;9.82;;;;;;;16.36;47.64;93031.03;4859560;29;20041;-93
2023/04/21 07:41:11;;;;;;;17.77;10.40;;;;;;;16.42;47.76;93036.47;4883982;29;20469;-93
2023/04/21 07:43:38;;;;;;;14.15;9.30;;;;;;;16.38;48.11;93034.00;4864273;29;20326;-92
2023/04/21 07:46:13;;;;;;;18.65;9.70;;;;;;;16.44;48.02;93040.16;4853344;29;20048;-93
2023/04/21 07:48:39;;;;;;;16.77;9.57;;;;;;;16.40;48.08;93039.69;4840431;29;20044;-92
2023/04/21 07:51:05;;;;;;;11.82;8.70;;;;;;;16.47;48.25;93038.38;4863068;29;20055;-92
2023/04/21 07:53:30;;;;;;;17.70;8.23;;;;;;;16.51;47.39;93047.03;4861707;29;20068;-91
2023/04/21 07:55:57;;;;;;;13.88;8.50;;;;;;;16.46;48.26;93043.09;4856487;29;20080;-92
2023/04/21 07:58:23;;;;;;;12.90;8.57;;;;;;;16.41;48.09;93038.44;4858429;29;20052;-92
2023/04/21 08:00:51;;;;;;;17.02;8.27;;;;;;;16.41;48.00;93041.16;4862175;29;20050;-94
2023/04/21 08:03:16;;;;;;;12.50;8.38;;;;;;;16.47;48.33;93041.09;4863104;29;20037;-91
2023/04/21 08:05:43;;;;;;;14.43;7.95;;;;;;;16.39;48.31;93046.38;4850328;29;20080;-92
2023/04/21 08:08:10;;;;;;;14.13;8.48;;;;;;;16.44;48.43;93045.63;4863954;29;20040;-92
2023/04/21 08:10:36;;;;;;;16.17;8.63;;;;;;;16.41;48.56;93046.63;4884406;29;20052;-93
2023/04/21 08:13:05;;;;;;;14.05;7.60;;;;;;;16.36;48.27;93036.47;4862863;29;20048;-92
2023/04/21 08:15:30;;;;;;;11.50;7.45;;;;;;;16.41;48.25;93062.25;4865100;29;20052;-91
2023/04/21 08:17:56;;;;;;;15.38;8.68;;;;;;;16.44;48.63;93053.06;4862218;29;20116;-92
2023/04/21 08:20:21;;;;;;;23.50;8.73;;;;;;;16.45;47.32;93057.97;4867306;29;20685;-92
2023/04/21 08:22:46;;;;;;;27.98;8.90;;;;;;;16.35;47.25;93056.09;4869801;29;20045;-91
2023/04/21 08:25:12;;;;;;;22.67;8.85;;;;;;;16.41;47.30;93065.72;4885799;29;20041;-91
2023/04/21 08:27:38;;;;;;;46.67;9.90;;;;;;;16.38;47.09;93047.63;4898575;29;20053;-92
2023/04/21 08:30:04;;;;;;;41.80;9.98;;;;;;;16.40;47.23;93053.31;4876734;29;20103;-91
2023/04/21 08:32:29;;;;;;;36.72;8.48;;;;;;;16.29;46.82;93058.84;4864955;29;20049;-92
2023/04/21 08:34:55;;;;;;;37.40;9.25;;;;;;;16.30;47.20;93054.88;4879389;29;20063;-93
2023/04/21 08:37:20;;;;;;;36.33;9.57;;;;;;;16.39;47.41;93056.56;4867907;29;20776;-92
2023/04/21 08:39:49;;;;;;;35.42;9.32;;;;;;;16.43;46.89;93059.75;4880239;29;20063;-92
2023/04/21 08:42:16;;;;;;;17.33;8.15;;;;;;;16.42;47.22;93044.63;4885836;29;20047;-93
2023/04/21 08:44:41;;;;;;;23.42;9.40;;;;;;;16.43;47.30;93052.31;4904282;29;20400;-92
2023/04/21 08:47:09;;;;;;;24.30;9.35;;;;;;;16.48;47.67;93050.03;4881304;29;20046;-90
2023/04/21 08:49:34;;;;;;;24.88;10.25;;;;;;;16.40;47.84;93053.31;4912369;29;20055;-90
2023/04/21 08:52:00;;;;;;;21.83;9.63;;;;;;;16.37;48.08;93070.69;4905964;29;20093;-90
2023/04/21 08:54:26;;;;;;;18.40;10.40;;;;;;;16.42;47.90;93045.38;4907476;29;20044;-90
2023/04/21 08:56:51;;;;;;;20.73;9.45;;;;;;;16.41;48.03;93057.53;4875796;29;20151;-91
2023/04/21 08:59:17;;;;;;;26.05;10.70;;;;;;;16.42;47.94;93061.75;4873315;29;20056;-90
2023/04/21 09:02:05;;;;;;;16.13;9.00;;;;;;;16.42;48.05;93053.56;4896953;29;20541;-90
2023/04/21 09:04:30;;;;;;;17.27;9.50;;;;;;;16.42;48.07;93050.09;4905079;29;20127;-90
2023/04/21 09:06:56;;;;;;;13.18;7.28;;;;;;;16.39;47.46;93062.00;4921983;29;20040;-90
2023/04/21 09:09:21;;;;;;;14.90;8.43;;;;;;;16.48;48.03;93058.97;4908603;29;20040;-90
2023/04/21 09:11:57;;;;;;;15.55;8.35;;;;;;;16.42;48.03;93061.75;4878574;29;20041;-90
2023/04/21 09:14:30;;;;;;;8.93;6.25;;;;;;;16.43;48.02;93065.97;4891388;29;20504;-91
2023/04/21 09:17:02;;;;;;;14.57;8.38;;;;;;;16.41;47.77;93070.44;4893623;29;20044;-91
2023/04/21 09:19:28;;;;;;;12.32;7.07;;;;;;;16.42;47.42;93063.72;4910910;29;20062;-91
2023/04/21 09:21:54;;;;;;;13.57;7.70;;;;;;;16.43;47.81;93062.50;4887029;29;20056;-90
2023/04/21 09:24:19;;;;;;;12.80;6.60;;;;;;;16.39;47.86;93062.75;4882854;29;20032;-90
2023/04/21 09:26:51;;;;;;;16.02;7.78;;;;;;;16.45;47.85;93060.00;4886589;29;20052;-89
2023/04/21 09:29:16;;;;;;;11.25;7.47;;;;;;;16.39;47.70;93056.56;4889274;29;20079;-91
2023/04/21 09:31:43;;;;;;;13.05;7.38;;;;;;;16.38;47.50;93057.81;4878470;29;20136;-89
2023/04/21 09:34:19;;;;;;;14.07;6.63;;;;;;;16.43;47.89;93057.78;4889276;29;20037;-90
2023/04/21 09:36:45;;;;;;;9.07;6.25;;;;;;;16.37;47.96;93061.78;4885385;29;20044;-90
2023/04/21 09:39:11;;;;;;;12.88;7.45;;;;;;;16.47;48.04;93054.75;4888156;29;20058;-88
2023/04/21 09:41:36;;;;;;;12.23;7.65;;;;;;;16.46;47.83;93077.81;4878824;29;20037;-91
2023/04/21 09:44:03;;;;;;;13.73;6.78;;;;;;;16.43;47.96;93063.22;4885218;29;20713;-90
2023/04/21 09:46:31;;;;;;;15.57;6.07;;;;;;;16.38;47.72;93053.09;4909634;29;20130;-90
2023/04/21 09:48:57;;;;;;;12.20;6.03;;;;;;;16.45;47.85;93049.78;4906334;29;20566;-90
2023/04/21 09:51:23;;;;;;;10.32;6.40;;;;;;;16.44;48.12;93061.97;4901509;29;20127;-90
2023/04/21 09:53:52;;;;;;;11.10;4.95;;;;;;;16.36;47.71;93050.13;4911625;29;20503;-90
2023/04/21 09:56:18;;;;;;;10.05;6.20;;;;;;;16.48;47.74;93052.75;4910741;29;20487;-91
2023/04/21 09:58:47;;;;;;;11.75;5.97;;;;;;;16.41;47.87;93052.09;4889982;29;20079;-90
2023/04/21 10:01:13;;;;;;;7.60;5.22;;;;;;;16.42;47.92;93061.00;4875261;29;20410;-90
2023/04/21 10:03:39;;;;;;;8.02;5.53;;;;;;;16.44;48.21;93061.97;4879243;29;20112;-90
2023/04/21 10:06:05;;;;;;;9.43;5.65;;;;;;;16.43;47.35;93040.66;4861877;29;20040;-91
2023/04/21 10:08:31;;;;;;;9.48;6.30;;;;;;;16.43;47.99;93052.31;4884483;29;20040;-90
2023/04/21 10:10:58;;;;;;;9.38;5.05;;;;;;;16.42;47.76;93042.66;4874529;29;20403;-91
2023/04/21 10:13:23;;;;;;;10.27;5.38;;;;;;;16.45;47.75;93049.09;4882145;29;20044;-89
2023/04/21 10:15:50;;;;;;;9.90;4.40;;;;;;;16.46;48.18;93042.34;4907560;29;20372;-91
2023/04/21 10:18:21;;;;;;;10.18;5.60;;;;;;;16.49;47.74;93044.06;4861024;29;20069;-89
2023/04/21 10:21:08;;;;;;;5.65;3.85;;;;;;;16.41;47.78;93049.34;4861849;29;20040;-90
2023/04/21 10:23:36;;;;;;;14.70;5.07;;;;;;;16.43;47.82;93054.31;4870810;29;20032;-91
2023/04/21 10:26:16;;;;;;;9.55;4.57;;;;;;;16.42;48.22;93045.38;4910255;29;20553;-91
2023/04/21 10:28:44;;;;;;;6.95;4.32;;;;;;;16.45;48.17;93054.53;4894909;29;20126;-91
2023/04/21 10:31:18;;;;;;;7.80;5.38;;;;;;;16.45;47.78;93035.44;4943073;28;20154;-90
2023/04/21 10:34:11;;;;;;;6.20;4.20;;;;;;;16.40;47.62;93039.69;4924888;29;20044;-90
2023/04/21 10:36:54;;;;;;;6.47;5.10;;;;;;;16.45;48.32;93035.44;4919964;29;20054;-89
2023/04/21 10:39:35;;;;;;;9.23;6.10;;;;;;;16.46;48.18;93032.19;4914108;29;20049;-90
2023/04/21 10:42:21;;;;;;;7.35;4.95;;;;;;;16.46;48.22;93031.44;4908182;29;20116;-90
2023/04/21 10:44:56;;;;;;;9.43;6.60;;;;;;;16.45;48.16;93035.44;4911213;29;20084;-91
2023/04/21 10:47:29;;;;;;;15.00;8.38;;;;;;;16.44;47.85;93026.53;4930637;29;20059;-89
2023/04/21 10:49:55;;;;;;;11.65;7.00;;;;;;;16.48;48.04;93025.47;4887909;29;20080;-90
2023/04/21 10:52:21;;;;;;;13.23;7.50;;;;;;;16.46;48.22;93034.91;4865825;29;20043;-89
2023/04/21 10:54:46;;;;;;;11.15;6.57;;;;;;;16.45;47.95;93040.91;4885580;29;20044;-90
2023/04/21 10:57:13;;;;;;;11.52;6.90;;;;;;;16.44;47.99;93031.22;4898939;29;20661;-90
2023/04/21 10:59:39;;;;;;;10.70;7.20;;;;;;;16.51;48.49;93030.66;4882136;29;20140;-91
2023/04/21 11:02:06;;;;;;;10.32;7.30;;;;;;;16.45;48.25;93044.34;4863210;29;20813;-90
2023/04/21 11:04:31;;;;;;;13.52;7.47;;;;;;;16.47;48.32;93022.00;4873760;29;20047;-90
2023/04/21 11:07:13;;;;;;;11.60;6.30;;;;;;;16.41;48.13;93040.44;4888541;29;20041;-89
2023/04/21 11:09:41;;;;;;;12.52;7.15;;;;;;;16.42;48.48;93039.19;4930150;29;20055;-91
2023/04/21 11:12:10;;;;;;;10.13;6.35;;;;;;;16.40;48.10;93023.31;4895803;29;20095;-93
2023/04/21 11:14:36;;;;;;;12.30;8.00;;;;;;;16.48;48.47;93036.41;4929216;29;20070;-93
2023/04/21 11:17:04;;;;;;;8.40;5.80;;;;;;;16.44;48.35;93033.97;4900340;29;20044;-90